Pinawa, Canada
Current Conditions -  °F | °C
As of 6:00 PM on Friday 24 Oct 2014 (Local Time) from CYWG Reporting Station
Few Clouds Few Clouds  
Wind Chill: 59°   Ceiling: Unl
Heat Index: 59°   Visibility: 15mi
Dew Point: 37°   Wind: 21mph
Humidity: 45%   Direction: 280°W
Pressure: 29.69"   Gusts: NA
Location:  50.15°N, 95.88°W
Report Text: CYWG 242300Z 28018KT 15SM FEW240 15/03 A2969 RMK CI1 CI TR SLP058 DENSITY ALT 1200FT
Loading
Personal Weather Stations






























Interactive Weather Map
Tropical Storm Tracking
New forecast layout! Learn more

10-Day Weather Forecast

Advertisements
Track Severe Weather on mobile